createdAt,value
2019-01-18T00:00:34.066Z,12.27
2019-01-18T00:03:04.438Z,12.60
2019-01-18T00:05:34.819Z,12.50
2019-01-18T00:08:06.590Z,12.57
2019-01-18T00:10:36.962Z,10.97
2019-01-18T00:13:09.377Z,11.30
2019-01-18T00:15:39.817Z,12.93
2019-01-18T00:18:10.246Z,12.90
2019-01-18T00:20:40.616Z,11.87
2019-01-18T00:23:10.931Z,9.90
2019-01-18T00:25:41.350Z,10.97
2019-01-18T00:30:55.972Z,12.33
2019-01-18T00:33:26.341Z,11.17
2019-01-18T00:35:56.719Z,10.03
2019-01-18T00:38:27.132Z,9.20
2019-01-18T00:41:01.526Z,12.17
2019-01-18T00:43:31.966Z,12.97
2019-01-18T00:46:02.387Z,9.67
2019-01-18T00:48:32.765Z,8.47
2019-01-18T00:51:03.142Z,10.53
2019-01-18T00:53:33.510Z,8.57
2019-01-18T00:56:04.070Z,9.73
2019-01-18T00:58:35.391Z,8.10
2019-01-18T01:01:05.961Z,10.40
2019-01-18T01:03:36.331Z,10.07
2019-01-18T01:06:08.812Z,9.37
2019-01-18T01:08:39.376Z,12.90
2019-01-18T01:11:09.804Z,7.63
2019-01-18T01:13:40.935Z,8.70
2019-01-18T01:16:11.374Z,11.13
2019-01-18T01:18:42.512Z,8.47
2019-01-18T01:21:12.911Z,8.93
2019-01-18T01:23:46.360Z,10.03
2019-01-18T01:26:17.809Z,11.53
2019-01-18T01:28:48.887Z,8.57
2019-01-18T01:31:25.466Z,8.17
2019-01-18T01:33:58.900Z,8.83
2019-01-18T01:36:29.276Z,8.03
2019-01-18T01:38:59.590Z,9.80
2019-01-18T01:41:30.009Z,9.77
2019-01-18T01:44:00.396Z,8.03
2019-01-18T01:46:30.714Z,10.90
2019-01-18T01:49:02.183Z,12.37
2019-01-18T01:51:32.696Z,8.47
2019-01-18T01:54:03.253Z,7.77
2019-01-18T01:56:34.391Z,12.37
2019-01-18T01:59:04.768Z,9.50
2019-01-18T02:01:37.247Z,9.30
2019-01-18T02:04:07.621Z,9.27
2019-01-18T02:06:39.065Z,8.37
2019-01-18T02:09:09.397Z,9.13
2019-01-18T02:11:39.824Z,9.20
2019-01-18T02:14:10.965Z,12.53
2019-01-18T02:16:41.408Z,13.03
2019-01-18T02:19:12.492Z,11.40
2019-01-18T02:21:50.085Z,8.90
2019-01-18T02:24:26.604Z,7.80
2019-01-18T02:26:57.288Z,9.50
2019-01-18T02:29:27.605Z,9.80
2019-01-18T02:31:58.039Z,8.50
2019-01-18T02:34:29.380Z,11.40
2019-01-18T02:37:00.016Z,9.87
2019-01-18T02:39:30.382Z,8.30
2019-01-18T02:42:00.754Z,10.17
2019-01-18T02:44:31.136Z,10.17
2019-01-18T02:47:01.449Z,8.57
2019-01-18T02:49:31.831Z,8.67
2019-01-18T02:52:02.340Z,8.83
2019-01-18T02:54:32.823Z,8.87
2019-01-18T02:57:24.558Z,8.17
2019-01-18T02:59:54.924Z,9.07
2019-01-18T03:02:26.115Z,12.30
2019-01-18T03:04:58.529Z,8.87
2019-01-18T03:07:28.905Z,9.57
2019-01-18T03:10:00.391Z,7.37
2019-01-18T03:12:30.983Z,8.87
2019-01-18T03:15:01.356Z,9.27
2019-01-18T03:17:31.813Z,12.70
2019-01-18T03:20:02.899Z,14.57
2019-01-18T03:22:34.785Z,13.43
2019-01-18T03:25:05.171Z,15.27
2019-01-18T03:27:35.815Z,19.97
2019-01-18T03:30:19.139Z,14.37
2019-01-18T03:32:46.895Z,12.93
2019-01-18T03:35:20.267Z,10.87
2019-01-18T03:37:50.629Z,12.37
2019-01-18T03:40:20.990Z,11.13
2019-01-18T03:42:52.322Z,14.23
2019-01-18T03:45:22.753Z,11.10
2019-01-18T03:47:53.130Z,14.93
2019-01-18T03:50:24.219Z,10.93
2019-01-18T03:52:54.628Z,10.27
2019-01-18T03:55:28.068Z,10.17
2019-01-18T03:57:58.441Z,9.03
2019-01-18T04:00:28.861Z,10.47
2019-01-18T04:02:59.233Z,11.83
2019-01-18T04:05:29.606Z,8.03
2019-01-18T04:08:00.110Z,10.37
2019-01-18T04:10:32.495Z,7.80
2019-01-18T04:13:03.668Z,8.23
2019-01-18T04:15:34.041Z,9.77
2019-01-18T04:18:04.418Z,8.50
2019-01-18T04:20:34.816Z,9.67
2019-01-18T04:23:05.368Z,9.43
2019-01-18T04:25:35.837Z,8.70
2019-01-18T04:28:06.247Z,11.87
2019-01-18T04:30:36.650Z,8.90
2019-01-18T04:33:07.026Z,8.40
2019-01-18T04:35:37.401Z,11.60
2019-01-18T04:41:04.962Z,11.67
2019-01-18T04:43:36.105Z,11.30
2019-01-18T04:46:07.245Z,11.57
2019-01-18T04:48:38.428Z,11.93
2019-01-18T04:51:08.800Z,13.37
2019-01-18T04:53:39.119Z,10.03
2019-01-18T04:56:10.526Z,9.57
2019-01-18T04:58:40.966Z,11.07
2019-01-18T05:01:15.442Z,13.17
2019-01-18T05:03:46.866Z,11.23
2019-01-18T05:06:17.245Z,12.13
2019-01-18T05:08:47.618Z,14.40
2019-01-18T05:11:18.042Z,11.93
2019-01-18T05:13:48.589Z,10.67
2019-01-18T05:16:19.158Z,11.80
2019-01-18T05:18:49.760Z,10.97
2019-01-18T05:21:20.126Z,11.17
2019-01-18T05:23:56.411Z,13.60
2019-01-18T05:26:34.521Z,11.13
2019-01-18T05:29:07.121Z,7.87
2019-01-18T05:31:37.496Z,11.67
2019-01-18T05:34:08.211Z,8.97
2019-01-18T05:36:39.281Z,9.40
2019-01-18T05:39:09.651Z,9.90
2019-01-18T05:41:40.091Z,6.10
2019-01-18T05:44:10.462Z,8.40
2019-01-18T05:46:40.828Z,8.17
2019-01-18T05:49:11.269Z,10.77
2019-01-18T05:51:42.232Z,8.73
2019-01-18T05:54:13.593Z,10.80
2019-01-18T05:56:44.268Z,10.83
2019-01-18T05:59:14.710Z,9.80
2019-01-18T06:01:45.098Z,8.97
2019-01-18T06:04:15.468Z,9.37
2019-01-18T06:06:45.840Z,13.80
2019-01-18T06:09:16.269Z,9.97
2019-01-18T06:11:46.578Z,8.27
2019-01-18T06:14:16.951Z,7.77
2019-01-18T06:16:47.334Z,7.17
2019-01-18T06:19:17.705Z,9.30
2019-01-18T06:22:07.527Z,8.87
2019-01-18T06:24:38.666Z,7.97
2019-01-18T06:27:09.809Z,8.30
2019-01-18T06:29:41.002Z,9.87
2019-01-18T06:32:15.679Z,8.87
2019-01-18T06:34:46.199Z,11.17
2019-01-18T06:37:16.628Z,10.43
2019-01-18T06:39:46.998Z,8.83
2019-01-18T06:42:17.364Z,14.23
2019-01-18T06:44:47.731Z,10.25
2019-01-18T06:47:18.110Z,10.43
2019-01-18T06:49:48.476Z,9.23
2019-01-18T06:52:18.904Z,9.93
2019-01-18T06:54:50.048Z,10.83
2019-01-18T06:57:20.480Z,9.17
2019-01-18T06:59:51.633Z,11.67
2019-01-18T07:02:22.786Z,10.17
2019-01-18T07:04:53.244Z,10.40
2019-01-18T07:07:30.922Z,8.20
2019-01-18T07:10:01.334Z,10.33
2019-01-18T07:12:31.651Z,10.13
2019-01-18T07:15:07.848Z,9.07
2019-01-18T07:17:38.228Z,11.17
2019-01-18T07:22:52.151Z,10.10
2019-01-18T07:25:25.217Z,8.83
2019-01-18T07:27:55.839Z,12.97
2019-01-18T07:30:26.214Z,11.77
2019-01-18T07:32:56.910Z,13.77
2019-01-18T07:35:27.353Z,10.73
2019-01-18T07:38:19.146Z,14.43
2019-01-18T07:40:49.570Z,11.83
2019-01-18T07:43:19.947Z,11.17
2019-01-18T07:45:51.535Z,9.63
2019-01-18T07:48:21.966Z,15.13
2019-01-18T07:50:53.111Z,11.07
2019-01-18T07:53:24.661Z,13.77
2019-01-18T07:55:55.976Z,13.67
2019-01-18T07:58:26.422Z,14.37
2019-01-18T08:00:57.585Z,13.27
2019-01-18T08:03:27.786Z,14.50
2019-01-18T08:05:58.348Z,12.30
2019-01-18T08:08:28.714Z,11.47
2019-01-18T08:11:01.086Z,25.37
2019-01-18T08:13:31.411Z,32.93
2019-01-18T08:16:01.870Z,28.37
2019-01-18T08:18:32.702Z,18.13
2019-01-18T08:21:03.264Z,14.93
2019-01-18T08:23:33.648Z,13.67
2019-01-18T08:26:04.044Z,13.90
2019-01-18T08:28:34.444Z,12.73
2019-01-18T08:31:04.759Z,12.50
2019-01-18T08:33:35.916Z,14.23
2019-01-18T08:36:07.067Z,16.33
2019-01-18T08:38:38.254Z,13.33
2019-01-18T08:41:12.662Z,12.97
2019-01-18T08:43:44.092Z,14.37
2019-01-18T08:46:14.462Z,15.40
2019-01-18T08:48:44.766Z,17.77
2019-01-18T08:51:15.216Z,14.33
2019-01-18T08:53:45.532Z,16.50
2019-01-18T08:56:16.933Z,12.27
2019-01-18T08:58:47.336Z,15.47
2019-01-18T09:01:17.709Z,17.03
2019-01-18T09:03:48.075Z,16.17
2019-01-18T09:06:18.423Z,17.23
2019-01-18T09:08:49.758Z,17.60
2019-01-18T09:11:20.139Z,15.37
2019-01-18T09:13:50.522Z,16.27
2019-01-18T09:16:21.668Z,18.77
2019-01-18T09:18:53.000Z,15.53
2019-01-18T09:21:23.596Z,16.77
2019-01-18T09:23:53.970Z,18.10
2019-01-18T09:26:25.299Z,18.47
2019-01-18T09:28:55.678Z,16.80
2019-01-18T09:31:26.057Z,14.00
2019-01-18T09:33:56.426Z,15.97
2019-01-18T09:36:27.078Z,17.13
2019-01-18T09:38:57.465Z,17.73
2019-01-18T09:41:27.844Z,16.03
2019-01-18T09:43:58.248Z,17.63
2019-01-18T09:46:28.809Z,17.83
2019-01-18T09:48:59.362Z,17.30
2019-01-18T09:51:29.698Z,14.13
2019-01-18T09:54:00.258Z,19.17
2019-01-18T09:56:30.567Z,15.17
2019-01-18T09:59:01.935Z,14.33
2019-01-18T10:01:32.520Z,12.97
2019-01-18T10:04:02.833Z,12.40
2019-01-18T10:06:34.293Z,13.23
2019-01-18T10:09:04.673Z,18.17
2019-01-18T10:11:35.347Z,12.70
2019-01-18T10:14:05.712Z,9.07
2019-01-18T10:16:36.095Z,11.43
2019-01-18T10:19:06.778Z,10.33
2019-01-18T10:21:37.077Z,7.97
2019-01-18T10:24:07.387Z,8.73
2019-01-18T10:26:37.746Z,12.17
2019-01-18T10:29:08.586Z,7.63
2019-01-18T10:31:38.895Z,8.93
2019-01-18T10:34:09.518Z,13.13
2019-01-18T10:36:39.871Z,8.37
2019-01-18T10:39:10.463Z,7.87
2019-01-18T10:41:40.806Z,6.97
2019-01-18T10:44:11.127Z,6.27
2019-01-18T10:46:41.694Z,8.17
2019-01-18T10:49:12.274Z,13.50
2019-01-18T10:51:42.847Z,10.57
2019-01-18T10:54:13.164Z,5.40
2019-01-18T10:56:44.370Z,8.60
2019-01-18T10:59:14.744Z,6.37
2019-01-18T11:01:45.304Z,8.27
2019-01-18T11:04:15.886Z,7.70
2019-01-18T11:06:47.228Z,9.20
2019-01-18T11:09:17.552Z,9.60
2019-01-18T11:11:47.995Z,10.10
2019-01-18T11:14:18.309Z,10.13
2019-01-18T11:16:48.636Z,8.67
2019-01-18T11:19:19.033Z,7.90
2019-01-18T11:24:31.346Z,11.77
2019-01-18T11:27:01.726Z,8.17
2019-01-18T11:29:32.103Z,6.33
2019-01-18T11:32:02.860Z,9.43
2019-01-18T11:34:33.482Z,7.27
2019-01-18T11:37:03.795Z,8.63
2019-01-18T11:39:53.678Z,7.20
2019-01-18T11:42:24.055Z,9.67
2019-01-18T11:44:54.494Z,6.60
2019-01-18T11:47:28.406Z,5.87
2019-01-18T11:49:58.110Z,10.77
2019-01-18T11:52:28.683Z,7.10
2019-01-18T11:55:06.439Z,10.43
2019-01-18T11:57:37.508Z,7.10
2019-01-18T12:00:08.138Z,4.67
2019-01-18T12:02:38.690Z,7.93
2019-01-18T12:05:09.319Z,9.67
2019-01-18T12:07:39.623Z,8.30
2019-01-18T12:10:16.035Z,6.03
2019-01-18T12:12:46.405Z,8.63
2019-01-18T12:15:16.831Z,6.37
2019-01-18T12:17:47.214Z,10.80
2019-01-18T12:20:17.582Z,8.00
2019-01-18T12:22:48.014Z,9.67
2019-01-18T12:25:19.341Z,10.97
2019-01-18T12:27:50.473Z,11.40
2019-01-18T12:30:25.950Z,7.90
2019-01-18T12:32:56.332Z,10.20
2019-01-18T12:35:26.648Z,7.87
2019-01-18T12:37:57.030Z,7.37
2019-01-18T12:40:27.682Z,9.27
2019-01-18T12:43:02.151Z,12.40
2019-01-18T12:45:32.533Z,8.00
2019-01-18T12:48:02.885Z,11.17
2019-01-18T12:50:33.444Z,13.57
2019-01-18T12:53:04.571Z,9.80
2019-01-18T12:55:35.155Z,10.33
2019-01-18T12:58:05.475Z,11.38
2019-01-18T13:00:36.035Z,14.87
2019-01-18T13:03:06.651Z,12.43
2019-01-18T13:05:39.410Z,8.60
2019-01-18T13:08:09.972Z,13.70
2019-01-18T13:10:41.386Z,11.93
2019-01-18T13:13:11.764Z,11.43
2019-01-18T13:15:47.854Z,9.17
2019-01-18T13:18:18.220Z,6.93
2019-01-18T13:20:48.682Z,10.97
2019-01-18T13:23:19.064Z,13.47
2019-01-18T13:25:49.633Z,9.87
2019-01-18T13:28:20.064Z,7.80
2019-01-18T13:30:50.444Z,10.43
2019-01-18T13:33:20.830Z,9.00
2019-01-18T13:35:51.181Z,9.03
2019-01-18T13:38:22.253Z,9.20
2019-01-18T13:40:55.771Z,7.47
2019-01-18T13:43:28.374Z,11.50
2019-01-18T13:45:58.767Z,5.60
2019-01-18T13:48:34.438Z,7.43
2019-01-18T13:51:05.003Z,7.07
2019-01-18T13:53:35.556Z,6.77
2019-01-18T13:56:05.907Z,9.60
2019-01-18T13:58:38.512Z,7.77
2019-01-18T14:01:09.092Z,10.07
2019-01-18T14:03:39.472Z,6.23
2019-01-18T14:06:09.909Z,6.57
2019-01-18T14:08:40.277Z,8.87
2019-01-18T14:11:10.727Z,7.63
2019-01-18T14:13:43.088Z,8.47
2019-01-18T14:16:14.475Z,10.47
2019-01-18T14:18:44.853Z,11.13
2019-01-18T14:21:15.235Z,8.67
2019-01-18T14:23:45.541Z,9.63
2019-01-18T14:26:16.355Z,10.40
2019-01-18T14:28:53.884Z,7.83
2019-01-18T14:31:24.293Z,6.33
2019-01-18T14:33:54.664Z,6.17
2019-01-18T14:36:25.793Z,7.80
2019-01-18T14:38:56.240Z,6.30
2019-01-18T14:41:31.172Z,7.53
2019-01-18T14:43:57.765Z,8.97
2019-01-18T14:46:28.188Z,8.07
2019-01-18T14:48:58.569Z,6.30
2019-01-18T14:51:29.180Z,10.87
2019-01-18T14:53:59.736Z,11.90
2019-01-18T14:56:30.280Z,8.03
2019-01-18T14:59:00.719Z,8.97
2019-01-18T15:01:49.525Z,7.20
2019-01-18T15:04:20.663Z,8.27
2019-01-18T15:06:51.028Z,9.90
2019-01-18T15:09:21.593Z,11.30
2019-01-18T15:11:53.952Z,8.13
2019-01-18T15:14:24.319Z,8.60
2019-01-18T15:16:54.771Z,7.70
2019-01-18T15:19:25.910Z,10.83
2019-01-18T15:21:56.989Z,9.90
2019-01-18T15:24:33.561Z,8.93
2019-01-18T15:27:10.111Z,8.40
2019-01-18T15:29:41.330Z,7.93
2019-01-18T15:32:11.814Z,12.07
2019-01-18T15:37:26.426Z,11.57
2019-01-18T15:39:56.811Z,11.73
2019-01-18T15:42:31.346Z,14.27
2019-01-18T15:45:02.746Z,12.73
2019-01-18T15:47:33.939Z,7.70
2019-01-18T15:50:16.232Z,10.30
2019-01-18T15:52:46.602Z,11.90
2019-01-18T15:55:16.969Z,12.70
2019-01-18T15:57:47.476Z,11.83
2019-01-18T16:00:24.821Z,14.17
2019-01-18T16:02:58.312Z,12.43
2019-01-18T16:05:30.732Z,14.50
2019-01-18T16:08:01.861Z,12.73
2019-01-18T16:10:32.349Z,9.30
2019-01-18T16:13:02.790Z,14.65
2019-01-18T16:15:52.269Z,14.40
2019-01-18T16:18:44.100Z,8.57
2019-01-18T16:21:19.521Z,8.53
2019-01-18T16:23:49.955Z,11.07
2019-01-18T16:26:24.424Z,12.30
2019-01-18T16:28:54.852Z,10.50
2019-01-18T16:31:25.317Z,10.77
2019-01-18T16:33:55.730Z,12.43
2019-01-18T16:36:26.098Z,12.50
2019-01-18T16:39:02.595Z,14.63
2019-01-18T16:41:32.906Z,11.87
2019-01-18T16:44:03.475Z,12.77
2019-01-18T16:46:34.678Z,12.17
2019-01-18T16:49:05.036Z,14.27
2019-01-18T16:51:35.348Z,9.40
2019-01-18T16:54:05.728Z,11.10
2019-01-18T16:56:36.154Z,11.17
2019-01-18T16:59:06.532Z,11.23
2019-01-18T17:01:37.185Z,16.27
2019-01-18T17:04:10.421Z,16.17
2019-01-18T17:06:46.923Z,14.30
2019-01-18T17:09:17.579Z,12.47
2019-01-18T17:11:48.944Z,12.87
2019-01-18T17:14:19.317Z,17.10
2019-01-18T17:16:49.729Z,17.87
2019-01-18T17:19:27.413Z,16.30
2019-01-18T17:21:57.845Z,13.40
2019-01-18T17:24:34.403Z,17.67
2019-01-18T17:27:04.966Z,13.93
2019-01-18T17:29:35.345Z,16.30
2019-01-18T17:32:05.815Z,17.27
2019-01-18T17:34:43.444Z,15.93
2019-01-18T17:37:13.887Z,18.73
2019-01-18T17:39:45.234Z,18.10
2019-01-18T17:42:22.390Z,20.77
2019-01-18T17:45:30.921Z,18.23
2019-01-18T17:48:20.889Z,19.57
2019-01-18T17:50:58.678Z,21.93
2019-01-18T17:53:49.691Z,20.80
2019-01-18T17:57:15.550Z,22.00
2019-01-18T18:00:22.395Z,26.03
2019-01-18T18:03:25.778Z,27.90
2019-01-18T18:05:58.610Z,25.03
2019-01-18T18:08:36.098Z,24.27
2019-01-18T18:11:20.116Z,23.80
2019-01-18T18:14:15.244Z,19.50
2019-01-18T18:16:59.419Z,22.17
2019-01-18T18:19:37.861Z,21.07
2019-01-18T18:22:40.687Z,20.87
2019-01-18T18:25:37.098Z,20.97
2019-01-18T18:28:17.808Z,18.67
2019-01-18T18:34:21.413Z,21.23
2019-01-18T18:37:15.703Z,18.10
2019-01-18T18:40:00.017Z,20.10
2019-01-18T18:42:45.314Z,26.73
2019-01-18T18:45:37.849Z,24.40
2019-01-18T18:48:21.923Z,25.63
2019-01-18T18:50:56.935Z,22.00
2019-01-18T18:53:59.387Z,22.60
2019-01-18T18:56:54.089Z,24.03
2019-01-18T19:00:07.437Z,33.83
2019-01-18T19:03:03.433Z,27.30
2019-01-18T19:06:00.700Z,22.20
2019-01-18T19:08:41.463Z,20.77
2019-01-18T19:14:23.027Z,34.30
2019-01-18T19:17:05.098Z,30.43
2019-01-18T19:19:49.344Z,36.50
2019-01-18T19:22:20.546Z,39.40
2019-01-18T19:25:07.712Z,42.50
2019-01-18T19:27:45.898Z,39.17
2019-01-18T19:30:34.033Z,29.53
2019-01-18T19:33:15.081Z,28.40
2019-01-18T19:35:55.883Z,27.43
2019-01-18T19:41:42.215Z,23.77
2019-01-18T19:44:21.318Z,22.87
2019-01-18T19:46:51.749Z,28.63
2019-01-18T19:49:27.957Z,28.77
2019-01-18T19:52:15.378Z,36.70
2019-01-18T19:55:09.230Z,29.77
2019-01-18T19:57:59.327Z,28.57
2019-01-18T20:00:43.757Z,25.93
2019-01-18T20:03:21.664Z,33.53
2019-01-18T20:08:38.526Z,29.37
2019-01-18T20:11:37.835Z,27.20
2019-01-18T20:14:19.473Z,36.70
2019-01-18T20:16:57.647Z,42.17
2019-01-18T20:19:35.548Z,31.13
2019-01-18T20:22:16.684Z,30.50
2019-01-18T20:25:16.345Z,36.47
2019-01-18T20:27:54.218Z,66.87
2019-01-18T20:30:48.159Z,54.07
2019-01-18T20:33:50.433Z,69.07
2019-01-18T20:36:26.641Z,60.23
2019-01-18T20:38:57.784Z,42.73
2019-01-18T20:41:49.402Z,41.33
2019-01-18T20:44:34.415Z,43.63
2019-01-18T20:47:12.182Z,36.87
2019-01-18T20:49:51.003Z,37.27
2019-01-18T20:52:38.968Z,43.77
2019-01-18T20:55:16.583Z,37.07
2019-01-18T20:58:33.611Z,34.23
2019-01-18T21:01:49.075Z,38.03
2019-01-18T21:05:03.376Z,27.80
2019-01-18T21:07:50.490Z,28.77
2019-01-18T21:10:40.785Z,36.83
2019-01-18T21:16:46.592Z,35.10
2019-01-18T21:19:45.553Z,34.80
2019-01-18T21:22:54.975Z,27.90
2019-01-18T21:25:35.435Z,26.63
2019-01-18T21:28:22.969Z,27.30
2019-01-18T21:31:07.219Z,70.20
2019-01-18T21:34:09.037Z,57.37
2019-01-18T21:37:17.799Z,40.97
2019-01-18T21:40:31.410Z,35.93
2019-01-18T21:43:05.419Z,29.77
2019-01-18T21:45:35.917Z,29.60
2019-01-18T21:48:26.640Z,33.20
2019-01-18T21:51:04.305Z,45.17
2019-01-18T21:53:45.683Z,30.90
2019-01-18T21:56:35.747Z,32.23
2019-01-18T21:59:28.435Z,29.80
2019-01-18T22:02:22.160Z,34.10
2019-01-18T22:08:12.136Z,28.10
2019-01-18T22:10:45.790Z,30.27
2019-01-18T22:13:35.954Z,33.43
2019-01-18T22:16:23.970Z,36.07
2019-01-18T22:19:12.097Z,33.70
2019-01-18T22:22:02.914Z,34.77
2019-01-18T22:24:56.793Z,41.57
2019-01-18T22:30:40.888Z,32.07
2019-01-18T22:36:27.194Z,37.50
2019-01-18T22:39:20.989Z,34.50
2019-01-18T22:42:11.485Z,37.67
2019-01-18T22:45:11.141Z,36.83
2019-01-18T22:48:11.084Z,38.50
2019-01-18T22:50:41.405Z,39.00
2019-01-18T22:53:29.093Z,32.67
2019-01-18T22:56:25.595Z,30.70
2019-01-18T22:59:14.270Z,33.63
2019-01-18T23:04:58.527Z,29.30
2019-01-18T23:08:04.287Z,28.47
2019-01-18T23:10:45.360Z,26.13
2019-01-18T23:13:23.125Z,25.73
2019-01-18T23:16:03.956Z,25.60
2019-01-18T23:18:52.239Z,23.33
2019-01-18T23:22:14.423Z,26.83
2019-01-18T23:24:51.950Z,23.43
2019-01-18T23:27:31.689Z,20.93
2019-01-18T23:30:26.781Z,20.10
2019-01-18T23:36:07.337Z,19.80
2019-01-18T23:38:44.424Z,23.03
2019-01-18T23:41:33.211Z,20.00
2019-01-18T23:44:14.460Z,23.47
2019-01-18T23:46:47.927Z,22.57
2019-01-18T23:49:26.021Z,22.93
2019-01-18T23:52:26.236Z,21.40
2019-01-18T23:55:12.869Z,19.37
2019-01-18T23:57:56.804Z,23.03
